createdAt,value
2018-03-25T00:02:13.497Z,17.10
2018-03-25T00:04:39.246Z,16.93
2018-03-25T00:07:04.990Z,17.60
2018-03-25T00:09:30.745Z,16.47
2018-03-25T00:11:56.479Z,15.73
2018-03-25T00:14:22.226Z,17.50
2018-03-25T00:16:47.969Z,16.73
2018-03-25T00:19:13.724Z,16.70
2018-03-25T00:21:39.478Z,17.23
2018-03-25T00:24:05.371Z,17.37
2018-03-25T00:26:31.119Z,17.17
2018-03-25T00:28:56.865Z,16.93
2018-03-25T00:31:22.614Z,17.47
2018-03-25T00:33:48.359Z,16.13
2018-03-25T00:36:14.098Z,16.33
2018-03-25T00:38:39.818Z,16.77
2018-03-25T00:41:05.554Z,15.97
2018-03-25T00:43:31.309Z,16.17
2018-03-25T00:45:57.050Z,15.97
2018-03-25T00:48:22.795Z,16.50
2018-03-25T00:50:48.547Z,15.27
2018-03-25T00:53:14.282Z,15.30
2018-03-25T00:55:40.024Z,15.80
2018-03-25T00:58:05.995Z,16.13
2018-03-25T01:00:31.767Z,14.73
2018-03-25T01:02:57.511Z,16.20
2018-03-25T01:05:23.268Z,15.47
2018-03-25T01:07:49.003Z,16.67
2018-03-25T01:10:14.756Z,15.70
2018-03-25T01:12:40.492Z,15.43
2018-03-25T01:15:06.264Z,15.80
2018-03-25T01:17:32.024Z,15.57
2018-03-25T01:19:58.068Z,15.37
2018-03-25T01:22:24.133Z,15.10
2018-03-25T01:24:50.723Z,15.13
2018-03-25T01:27:16.746Z,16.73
2018-03-25T01:29:42.754Z,14.82
2018-03-25T01:32:08.802Z,15.93
2018-03-25T01:34:34.565Z,16.37
2018-03-25T01:37:00.570Z,16.20
2018-03-25T01:39:26.343Z,15.80
2018-03-25T01:41:52.094Z,15.93
2018-03-25T01:44:17.835Z,15.17
2018-03-25T01:46:43.578Z,15.43
2018-03-25T01:49:09.318Z,15.93
2018-03-25T01:51:35.058Z,15.87
2018-03-25T01:54:00.798Z,14.70
2018-03-25T01:56:26.532Z,16.03
2018-03-25T01:58:52.640Z,15.07
2018-03-25T02:01:18.403Z,15.80
2018-03-25T02:03:44.141Z,15.40
2018-03-25T02:06:09.869Z,15.50
2018-03-25T02:08:35.729Z,15.97
2018-03-25T02:11:01.723Z,15.27
2018-03-25T02:13:28.856Z,15.68
2018-03-25T02:15:54.639Z,15.02
2018-03-25T02:18:20.402Z,16.23
2018-03-25T02:20:46.239Z,15.73
2018-03-25T02:23:11.978Z,15.93
2018-03-25T02:25:37.727Z,15.40
2018-03-25T02:28:03.466Z,16.13
2018-03-25T02:30:29.203Z,17.17
2018-03-25T02:32:54.944Z,15.83
2018-03-25T02:35:20.698Z,15.77
2018-03-25T02:37:46.444Z,16.27
2018-03-25T02:40:12.186Z,14.87
2018-03-25T02:42:37.934Z,14.93
2018-03-25T02:45:03.688Z,16.57
2018-03-25T02:47:29.441Z,15.70
2018-03-25T02:49:55.184Z,16.23
2018-03-25T02:52:20.927Z,16.03
2018-03-25T02:54:46.664Z,15.97
2018-03-25T02:57:12.409Z,14.93
2018-03-25T02:59:38.182Z,15.17
2018-03-25T03:02:03.907Z,16.07
2018-03-25T03:04:29.651Z,15.63
2018-03-25T03:06:55.393Z,15.97
2018-03-25T03:09:21.154Z,16.43
2018-03-25T03:11:46.878Z,15.87
2018-03-25T03:14:12.647Z,16.00
2018-03-25T03:16:38.400Z,16.20
2018-03-25T03:19:10.227Z,16.40
2018-03-25T03:21:35.918Z,16.27
2018-03-25T03:24:01.672Z,15.70
2018-03-25T03:26:27.426Z,15.30
2018-03-25T03:28:53.166Z,15.27
2018-03-25T03:31:18.907Z,16.47
2018-03-25T03:33:44.667Z,15.40
2018-03-25T03:36:10.422Z,15.47
2018-03-25T03:38:36.176Z,15.37
2018-03-25T03:41:01.902Z,16.03
2018-03-25T03:43:27.635Z,15.60
2018-03-25T03:45:53.377Z,17.17
2018-03-25T03:48:19.117Z,16.07
2018-03-25T03:50:44.868Z,16.30
2018-03-25T03:53:10.598Z,16.53
2018-03-25T03:55:36.336Z,15.60
2018-03-25T03:58:02.082Z,16.67
2018-03-25T04:00:27.827Z,16.93
2018-03-25T04:02:53.566Z,16.67
2018-03-25T04:05:19.310Z,15.37
2018-03-25T04:07:45.055Z,16.47
2018-03-25T04:10:10.813Z,16.97
2018-03-25T04:12:36.569Z,16.27
2018-03-25T04:15:02.326Z,16.57
2018-03-25T04:17:28.062Z,15.10
2018-03-25T04:19:53.797Z,16.60
2018-03-25T04:22:19.531Z,16.70
2018-03-25T04:24:45.281Z,16.07
2018-03-25T04:27:11.022Z,16.70
2018-03-25T04:29:36.771Z,16.03
2018-03-25T04:32:02.528Z,16.57
2018-03-25T04:34:28.282Z,15.23
2018-03-25T04:36:54.026Z,16.20
2018-03-25T04:39:19.776Z,16.50
2018-03-25T04:41:45.522Z,16.13
2018-03-25T04:44:11.258Z,15.83
2018-03-25T04:46:36.994Z,16.10
2018-03-25T04:49:02.750Z,16.57
2018-03-25T04:51:28.492Z,16.53
2018-03-25T04:53:54.242Z,15.83
2018-03-25T04:56:19.989Z,16.57
2018-03-25T04:58:45.722Z,16.47
2018-03-25T05:01:11.457Z,17.10
2018-03-25T05:03:37.178Z,16.13
2018-03-25T05:06:02.940Z,16.57
2018-03-25T05:08:28.678Z,15.73
2018-03-25T05:10:54.430Z,16.30
2018-03-25T05:13:20.150Z,16.80
2018-03-25T05:15:45.898Z,16.80
2018-03-25T05:18:11.645Z,16.97
2018-03-25T05:20:37.394Z,16.67
2018-03-25T05:23:03.129Z,17.03
2018-03-25T05:25:28.881Z,16.03
2018-03-25T05:27:54.620Z,16.60
2018-03-25T05:30:20.350Z,18.50
2018-03-25T05:32:46.090Z,15.97
2018-03-25T05:35:11.847Z,17.63
2018-03-25T05:37:37.575Z,17.47
2018-03-25T05:40:03.313Z,16.53
2018-03-25T05:42:29.060Z,16.87
2018-03-25T05:44:54.804Z,17.87
2018-03-25T05:47:20.551Z,16.90
2018-03-25T05:49:46.295Z,18.03
2018-03-25T05:52:12.038Z,18.07
2018-03-25T05:54:37.778Z,18.03
2018-03-25T05:57:03.519Z,17.10
2018-03-25T05:59:29.258Z,17.97
2018-03-25T06:01:55.005Z,17.73
2018-03-25T06:04:20.741Z,18.40
2018-03-25T06:06:46.491Z,18.70
2018-03-25T06:09:12.218Z,18.00
2018-03-25T06:11:37.983Z,17.40
2018-03-25T06:14:03.741Z,17.97
2018-03-25T06:16:29.478Z,18.27
2018-03-25T06:18:55.254Z,20.10
2018-03-25T06:21:20.998Z,20.40
2018-03-25T06:23:46.738Z,18.43
2018-03-25T06:26:12.469Z,19.53
2018-03-25T06:28:38.214Z,18.70
2018-03-25T06:31:03.962Z,18.73
2018-03-25T06:33:29.699Z,18.70
2018-03-25T06:35:55.491Z,18.47
2018-03-25T06:38:21.243Z,18.03
2018-03-25T06:40:46.994Z,18.43
2018-03-25T06:43:12.746Z,19.87
2018-03-25T06:45:38.490Z,18.80
2018-03-25T06:48:04.251Z,19.77
2018-03-25T06:50:29.998Z,19.60
2018-03-25T06:52:55.757Z,19.97
2018-03-25T06:55:21.490Z,19.27
2018-03-25T06:57:47.226Z,18.47
2018-03-25T07:00:12.971Z,18.93
2018-03-25T07:02:38.718Z,19.43
2018-03-25T07:05:04.467Z,19.90
2018-03-25T07:07:30.189Z,19.03
2018-03-25T07:09:55.931Z,19.80
2018-03-25T07:12:21.662Z,19.20
2018-03-25T07:14:47.411Z,19.70
2018-03-25T07:17:13.149Z,18.10
2018-03-25T07:19:38.890Z,20.00
2018-03-25T07:22:04.624Z,19.10
2018-03-25T07:24:30.359Z,20.10
2018-03-25T07:26:56.086Z,19.93
2018-03-25T07:29:21.818Z,20.37
2018-03-25T07:31:47.549Z,20.57
2018-03-25T07:34:13.285Z,20.53
2018-03-25T07:36:39.047Z,21.37
2018-03-25T07:39:04.792Z,20.07
2018-03-25T07:41:30.513Z,20.57
2018-03-25T07:43:56.243Z,20.77
2018-03-25T07:46:21.974Z,19.00
2018-03-25T07:48:47.727Z,19.57
2018-03-25T07:51:13.491Z,18.67
2018-03-25T07:53:39.250Z,19.20
2018-03-25T07:56:04.984Z,19.70
2018-03-25T07:58:30.726Z,20.47
2018-03-25T08:00:56.459Z,20.57
2018-03-25T08:03:22.191Z,20.57
2018-03-25T08:05:47.934Z,18.87
2018-03-25T08:08:13.658Z,18.60
2018-03-25T08:10:39.409Z,18.83
2018-03-25T08:13:05.243Z,23.67
2018-03-25T08:15:30.997Z,25.53
2018-03-25T08:17:56.747Z,26.23
2018-03-25T08:20:22.491Z,22.53
2018-03-25T08:22:48.226Z,23.07
2018-03-25T08:25:13.982Z,25.33
2018-03-25T08:27:39.730Z,23.67
2018-03-25T08:30:05.481Z,23.17
2018-03-25T08:32:31.206Z,22.37
2018-03-25T08:34:56.945Z,22.03
2018-03-25T08:37:22.690Z,22.23
2018-03-25T08:39:48.451Z,21.00
2018-03-25T08:42:14.211Z,21.57
2018-03-25T08:44:39.946Z,22.60
2018-03-25T08:47:05.685Z,20.50
2018-03-25T08:49:31.447Z,19.40
2018-03-25T08:51:57.213Z,20.37
2018-03-25T08:54:22.967Z,20.13
2018-03-25T08:56:48.729Z,19.63
2018-03-25T08:59:14.474Z,20.40
2018-03-25T09:01:40.238Z,19.50
2018-03-25T09:04:05.959Z,19.20
2018-03-25T09:06:31.705Z,19.57
2018-03-25T09:08:57.442Z,19.07
2018-03-25T09:11:23.190Z,19.33
2018-03-25T09:13:48.917Z,19.50
2018-03-25T09:16:14.660Z,19.30
2018-03-25T09:18:40.403Z,20.20
2018-03-25T09:21:06.163Z,18.97
2018-03-25T09:23:31.958Z,19.83
2018-03-25T09:25:57.705Z,20.53
2018-03-25T09:28:23.449Z,19.27
2018-03-25T09:30:49.229Z,18.37
2018-03-25T09:33:14.973Z,18.43
2018-03-25T09:35:40.726Z,19.17
2018-03-25T09:38:06.457Z,18.83
2018-03-25T09:40:32.444Z,18.70
2018-03-25T09:42:58.198Z,18.60
2018-03-25T09:45:24.828Z,19.77
2018-03-25T09:47:50.583Z,19.40
2018-03-25T09:50:16.327Z,20.30
2018-03-25T09:52:42.114Z,20.30
2018-03-25T09:55:07.807Z,20.13
2018-03-25T09:57:33.542Z,20.23
2018-03-25T09:59:59.275Z,18.80
2018-03-25T10:02:26.077Z,19.47
2018-03-25T10:04:51.891Z,19.07
2018-03-25T10:07:17.574Z,19.33
2018-03-25T10:09:43.314Z,19.90
2018-03-25T10:12:09.062Z,19.90
2018-03-25T10:14:34.796Z,20.17
2018-03-25T10:17:00.538Z,19.60
2018-03-25T10:19:26.277Z,18.50
2018-03-25T10:21:52.027Z,20.83
2018-03-25T10:24:17.826Z,19.73
2018-03-25T10:26:44.412Z,19.83
2018-03-25T10:29:10.170Z,19.80
2018-03-25T10:31:35.901Z,18.70
2018-03-25T10:34:01.683Z,19.67
2018-03-25T10:36:27.445Z,19.57
2018-03-25T10:38:53.186Z,19.30
2018-03-25T10:41:18.926Z,19.00
2018-03-25T10:43:44.749Z,19.30
2018-03-25T10:46:10.674Z,19.57
2018-03-25T10:48:36.441Z,18.63
2018-03-25T10:51:02.711Z,19.67
2018-03-25T10:53:28.477Z,19.60
2018-03-25T10:55:54.222Z,19.43
2018-03-25T10:58:19.997Z,19.33
2018-03-25T11:00:45.753Z,19.60
2018-03-25T11:03:11.509Z,20.20
2018-03-25T11:05:44.338Z,19.63
2018-03-25T11:08:10.087Z,19.47
2018-03-25T11:10:35.859Z,20.57
2018-03-25T11:13:01.766Z,21.13
2018-03-25T11:15:27.802Z,20.10
2018-03-25T11:17:53.581Z,19.37
2018-03-25T11:20:19.333Z,20.90
2018-03-25T11:22:45.800Z,22.87
2018-03-25T11:25:12.757Z,24.97
2018-03-25T11:27:39.624Z,24.13
2018-03-25T11:30:06.337Z,23.83
2018-03-25T11:32:32.084Z,25.23
2018-03-25T11:34:57.840Z,23.93
2018-03-25T11:37:23.575Z,22.80
2018-03-25T11:39:49.333Z,24.50
2018-03-25T11:42:15.079Z,24.50
2018-03-25T11:44:40.843Z,23.53
2018-03-25T11:47:06.590Z,22.23
2018-03-25T11:49:32.361Z,18.90
2018-03-25T11:51:58.106Z,22.43
2018-03-25T11:54:23.868Z,21.60
2018-03-25T11:56:49.607Z,20.53
2018-03-25T11:59:15.366Z,20.00
2018-03-25T12:01:41.122Z,21.63
2018-03-25T12:04:06.880Z,20.73
2018-03-25T12:06:32.629Z,22.33
2018-03-25T12:08:58.394Z,21.80
2018-03-25T12:11:24.134Z,20.60
2018-03-25T12:13:49.903Z,20.47
2018-03-25T12:16:15.649Z,20.17
2018-03-25T12:18:41.398Z,20.03
2018-03-25T12:21:07.138Z,20.53
2018-03-25T12:23:32.878Z,19.27
2018-03-25T12:25:58.628Z,19.37
2018-03-25T12:28:24.361Z,18.23
2018-03-25T12:30:50.115Z,18.70
2018-03-25T12:33:15.853Z,18.03
2018-03-25T12:35:41.604Z,18.97
2018-03-25T12:38:07.344Z,18.50
2018-03-25T12:40:33.102Z,18.10
2018-03-25T12:42:58.840Z,19.00
2018-03-25T12:45:24.607Z,19.13
2018-03-25T12:47:50.363Z,18.53
2018-03-25T12:50:16.134Z,18.90
2018-03-25T12:52:41.877Z,18.60
2018-03-25T12:55:07.638Z,19.80
2018-03-25T12:57:33.383Z,19.53
2018-03-25T12:59:59.126Z,19.83
2018-03-25T13:02:25.326Z,20.20
2018-03-25T13:04:51.086Z,20.27
2018-03-25T13:07:16.828Z,20.17
2018-03-25T13:09:42.579Z,19.13
2018-03-25T13:12:08.315Z,18.43
2018-03-25T13:14:34.059Z,19.43
2018-03-25T13:19:32.450Z,18.40
2018-03-25T13:21:58.272Z,19.37
2018-03-25T13:24:25.076Z,19.50
2018-03-25T13:26:50.896Z,19.93
2018-03-25T13:29:16.642Z,18.73
2018-03-25T13:31:42.402Z,18.67
2018-03-25T13:34:08.145Z,18.30
2018-03-25T13:36:33.898Z,18.73
2018-03-25T13:38:59.655Z,18.67
2018-03-25T13:41:25.400Z,18.53
2018-03-25T13:43:51.308Z,17.17
2018-03-25T13:46:17.058Z,17.60
2018-03-25T13:48:42.806Z,17.80
2018-03-25T13:51:08.544Z,16.97
2018-03-25T13:53:34.269Z,17.73
2018-03-25T13:56:00.012Z,16.97
2018-03-25T13:58:25.779Z,18.17
2018-03-25T14:00:51.609Z,18.03
2018-03-25T14:03:17.316Z,19.47
2018-03-25T14:05:43.079Z,18.30
2018-03-25T14:08:08.898Z,18.23
2018-03-25T14:10:34.632Z,19.10
2018-03-25T14:13:00.427Z,18.20
2018-03-25T14:15:26.286Z,19.07
2018-03-25T14:17:52.026Z,19.20
2018-03-25T14:20:17.748Z,17.90
2018-03-25T14:22:43.479Z,18.83
2018-03-25T14:25:09.213Z,17.67
2018-03-25T14:27:34.954Z,18.80
2018-03-25T14:30:00.734Z,17.93
2018-03-25T14:32:26.420Z,19.03
2018-03-25T14:34:52.158Z,18.73
2018-03-25T14:37:17.961Z,19.03
2018-03-25T14:39:43.694Z,18.30
2018-03-25T14:42:09.425Z,19.20
2018-03-25T14:44:35.154Z,18.43
2018-03-25T14:47:00.924Z,19.20
2018-03-25T14:49:26.679Z,19.60
2018-03-25T14:51:52.418Z,20.13
2018-03-25T14:54:18.146Z,18.90
2018-03-25T14:56:43.890Z,20.23
2018-03-25T14:59:09.622Z,18.70
2018-03-25T15:01:35.386Z,19.77
2018-03-25T15:04:01.137Z,20.73
2018-03-25T15:06:26.866Z,20.60
2018-03-25T15:08:52.614Z,20.13
2018-03-25T15:11:18.360Z,20.47
2018-03-25T15:13:44.156Z,20.00
2018-03-25T15:16:09.893Z,19.77
2018-03-25T15:18:35.634Z,18.40
2018-03-25T15:21:01.380Z,20.17
2018-03-25T15:23:27.123Z,20.17
2018-03-25T15:25:52.931Z,19.43
2018-03-25T15:28:18.637Z,19.30
2018-03-25T15:30:44.365Z,19.50
2018-03-25T15:33:10.154Z,19.73
2018-03-25T15:35:35.898Z,20.10
2018-03-25T15:38:01.655Z,19.87
2018-03-25T15:40:27.390Z,21.00
2018-03-25T15:42:53.133Z,19.93
2018-03-25T15:45:18.868Z,21.90
2018-03-25T15:47:44.610Z,21.27
2018-03-25T15:50:10.370Z,23.73
2018-03-25T15:52:36.109Z,24.67
2018-03-25T15:55:01.860Z,23.13
2018-03-25T15:57:27.596Z,21.77
2018-03-25T15:59:53.317Z,24.07
2018-03-25T16:02:19.033Z,23.60
2018-03-25T16:04:44.774Z,23.27
2018-03-25T16:07:10.508Z,23.90
2018-03-25T16:09:36.240Z,23.30
2018-03-25T16:12:01.989Z,23.60
2018-03-25T16:14:27.722Z,22.40
2018-03-25T16:16:53.466Z,22.13
2018-03-25T16:19:19.201Z,22.87
2018-03-25T16:21:44.942Z,24.10
2018-03-25T16:24:10.687Z,23.37
2018-03-25T16:26:36.450Z,23.07
2018-03-25T16:29:02.214Z,21.43
2018-03-25T16:31:27.946Z,23.67
2018-03-25T16:33:53.699Z,22.63
2018-03-25T16:36:19.449Z,22.97
2018-03-25T16:38:45.197Z,21.90
2018-03-25T16:41:10.946Z,23.50
2018-03-25T16:43:36.674Z,22.13
2018-03-25T16:46:02.412Z,23.00
2018-03-25T16:48:28.147Z,23.63
2018-03-25T16:50:53.896Z,24.00
2018-03-25T16:53:19.634Z,23.07
2018-03-25T16:55:45.375Z,23.97
2018-03-25T16:58:11.106Z,25.27
2018-03-25T17:00:36.833Z,25.10
2018-03-25T17:03:02.586Z,25.70
2018-03-25T17:05:28.330Z,26.20
2018-03-25T17:07:54.052Z,26.33
2018-03-25T17:10:19.809Z,25.10
2018-03-25T17:12:45.555Z,25.73
2018-03-25T17:15:11.310Z,24.77
2018-03-25T17:17:37.035Z,25.90
2018-03-25T17:20:02.768Z,24.07
2018-03-25T17:22:28.502Z,25.30
2018-03-25T17:24:54.266Z,25.03
2018-03-25T17:27:20.007Z,26.33
2018-03-25T17:29:45.732Z,27.57
2018-03-25T17:32:11.474Z,28.33
2018-03-25T17:34:37.205Z,25.47
2018-03-25T17:37:02.943Z,28.50
2018-03-25T17:39:28.665Z,27.77
2018-03-25T17:41:54.852Z,28.30
2018-03-25T17:44:20.589Z,28.87
2018-03-25T17:46:46.322Z,30.00
2018-03-25T17:49:12.077Z,28.73
2018-03-25T17:51:37.813Z,27.60
2018-03-25T17:54:03.545Z,29.00
2018-03-25T17:56:29.290Z,31.27
2018-03-25T17:58:55.007Z,32.73
2018-03-25T18:01:20.766Z,31.97
2018-03-25T18:03:46.497Z,32.00
2018-03-25T18:06:12.233Z,32.40
2018-03-25T18:08:37.978Z,32.30
2018-03-25T18:11:03.729Z,34.03
2018-03-25T18:13:29.487Z,36.93
2018-03-25T18:15:55.247Z,37.07
2018-03-25T18:18:21.009Z,34.97
2018-03-25T18:20:56.293Z,35.77
2018-03-25T18:23:12.477Z,36.57
2018-03-25T18:25:38.211Z,38.13
2018-03-25T18:28:03.954Z,38.00
2018-03-25T18:30:29.705Z,38.03
2018-03-25T18:32:55.464Z,38.30
2018-03-25T18:35:21.206Z,40.73
2018-03-25T18:37:46.974Z,39.17
2018-03-25T18:40:12.719Z,39.20
2018-03-25T18:42:38.460Z,41.80
2018-03-25T18:45:04.200Z,38.47
2018-03-25T18:47:29.946Z,40.60
2018-03-25T18:49:55.690Z,40.67
2018-03-25T18:52:21.450Z,40.73
2018-03-25T18:54:47.176Z,40.30
2018-03-25T18:57:12.902Z,39.47
2018-03-25T18:59:38.662Z,40.90
2018-03-25T19:02:04.404Z,41.77
2018-03-25T19:04:30.146Z,45.50
2018-03-25T19:06:55.878Z,44.07
2018-03-25T19:09:21.657Z,44.20
2018-03-25T19:11:47.381Z,48.37
2018-03-25T19:14:13.118Z,46.13
2018-03-25T19:16:38.853Z,47.17
2018-03-25T19:19:04.604Z,46.57
2018-03-25T19:21:30.337Z,47.53
2018-03-25T19:23:56.082Z,46.63
2018-03-25T19:26:21.810Z,47.60
2018-03-25T19:28:47.597Z,46.80
2018-03-25T19:31:13.338Z,46.43
2018-03-25T19:33:39.082Z,46.03
2018-03-25T19:36:04.803Z,46.73
2018-03-25T19:38:30.528Z,46.73
2018-03-25T19:40:56.270Z,47.07
2018-03-25T19:43:21.998Z,49.63
2018-03-25T19:45:47.728Z,48.73
2018-03-25T19:48:13.476Z,49.40
2018-03-25T19:50:39.222Z,46.13
2018-03-25T19:53:04.965Z,44.97
2018-03-25T19:55:30.701Z,44.53
2018-03-25T19:57:56.439Z,43.23
2018-03-25T20:00:22.200Z,44.40
2018-03-25T20:02:47.958Z,44.87
2018-03-25T20:05:13.698Z,42.70
2018-03-25T20:07:39.426Z,44.87
2018-03-25T20:10:05.184Z,44.70
2018-03-25T20:12:30.924Z,43.00
2018-03-25T20:14:56.668Z,42.30
2018-03-25T20:17:22.406Z,42.37
2018-03-25T20:19:48.157Z,40.23
2018-03-25T20:22:13.948Z,39.60
2018-03-25T20:24:39.655Z,41.30
2018-03-25T20:27:05.429Z,42.07
2018-03-25T20:29:31.167Z,42.00
2018-03-25T20:31:56.906Z,40.57
2018-03-25T20:34:22.627Z,40.10
2018-03-25T20:36:48.398Z,40.03
2018-03-25T20:39:14.151Z,40.10
2018-03-25T20:41:39.899Z,40.87
2018-03-25T20:44:05.641Z,39.17
2018-03-25T20:46:31.379Z,39.37
2018-03-25T20:48:57.146Z,38.17
2018-03-25T20:51:22.890Z,39.90
2018-03-25T20:53:48.634Z,39.73
2018-03-25T20:56:14.402Z,39.90
2018-03-25T20:58:40.136Z,40.73
2018-03-25T21:01:05.875Z,41.10
2018-03-25T21:03:31.605Z,41.30
2018-03-25T21:05:57.341Z,42.30
2018-03-25T21:08:23.074Z,42.40
2018-03-25T21:10:48.819Z,43.93
2018-03-25T21:13:14.647Z,44.63
2018-03-25T21:15:40.378Z,44.10
2018-03-25T21:18:06.126Z,43.07
2018-03-25T21:20:31.861Z,43.23
2018-03-25T21:22:57.597Z,44.33
2018-03-25T21:25:23.326Z,46.33
2018-03-25T21:27:49.074Z,44.47
2018-03-25T21:30:14.821Z,45.57
2018-03-25T21:32:40.557Z,47.67
2018-03-25T21:35:06.290Z,45.43
2018-03-25T21:37:32.027Z,45.73
2018-03-25T21:39:57.759Z,46.13
2018-03-25T21:42:23.498Z,45.93
2018-03-25T21:44:49.219Z,45.23
2018-03-25T21:47:14.984Z,47.67
2018-03-25T21:49:40.722Z,46.77
2018-03-25T21:52:06.463Z,47.40
2018-03-25T21:54:32.195Z,48.47
2018-03-25T21:56:57.924Z,48.33
2018-03-25T21:59:23.674Z,47.40
2018-03-25T22:01:49.413Z,47.00
2018-03-25T22:04:15.178Z,47.70
2018-03-25T22:06:40.917Z,45.93
2018-03-25T22:09:06.662Z,47.30
2018-03-25T22:11:32.380Z,47.47
2018-03-25T22:13:58.233Z,47.63
2018-03-25T22:16:23.957Z,48.30
2018-03-25T22:18:58.870Z,47.57
2018-03-25T22:21:24.608Z,50.28
2018-03-25T22:23:50.341Z,50.20
2018-03-25T22:26:16.066Z,50.93
2018-03-25T22:28:41.809Z,51.97
2018-03-25T22:31:07.550Z,51.20
2018-03-25T22:33:33.300Z,53.27
2018-03-25T22:35:59.030Z,53.07
2018-03-25T22:38:24.765Z,56.97
2018-03-25T22:40:50.498Z,55.33
2018-03-25T22:43:16.231Z,54.77
2018-03-25T22:45:41.973Z,55.53
2018-03-25T22:48:07.714Z,56.10
2018-03-25T22:50:33.450Z,58.73
2018-03-25T22:52:59.174Z,59.30
2018-03-25T22:55:24.905Z,60.47
2018-03-25T22:57:50.643Z,58.70
2018-03-25T23:00:16.378Z,60.63
2018-03-25T23:02:42.123Z,59.17
2018-03-25T23:05:07.867Z,59.77
2018-03-25T23:07:33.607Z,63.07
2018-03-25T23:09:59.374Z,64.60
2018-03-25T23:12:25.112Z,61.33
2018-03-25T23:14:50.865Z,65.03
2018-03-25T23:17:16.600Z,63.00
2018-03-25T23:19:42.334Z,63.70
2018-03-25T23:22:08.078Z,57.43
2018-03-25T23:24:33.818Z,55.70
2018-03-25T23:26:59.546Z,55.97
2018-03-25T23:29:25.276Z,53.97
2018-03-25T23:31:51.034Z,49.67
2018-03-25T23:34:16.754Z,53.07
2018-03-25T23:36:42.501Z,51.43
2018-03-25T23:39:08.231Z,46.47
2018-03-25T23:41:33.970Z,49.03
2018-03-25T23:43:59.878Z,48.77
2018-03-25T23:46:25.632Z,49.93
2018-03-25T23:48:51.372Z,48.13
2018-03-25T23:51:17.125Z,44.93
2018-03-25T23:53:42.870Z,37.80
2018-03-25T23:56:08.622Z,39.87
2018-03-25T23:58:34.582Z,43.17
